Time;durP1;ratioP1;P1;durP2;ratioP2;P2;SDS_P1;SDS_P2;PMS_P1;PMS_P2;Temp;Humidity;BMP_temperature;BMP_pressure;BME280_temperature;BME280_humidity;BME280_pressure;Samples;Min_cycle;Max_cycle;Signal;HPM_P1;HPM_P2
2021/12/29 00:01:24;;;;;;;;;1.75;1.75;;;;;11.49;85.92;100195.28;5057720;28;45523;-77
2021/12/29 00:03:49;;;;;;;;;6.00;3.00;;;;;11.40;86.00;100188.56;5057169;28;46863;-77
2021/12/29 00:06:15;;;;;;;;;3.25;2.00;;;;;11.48;86.26;100201.47;5057140;28;45361;-77
2021/12/29 00:08:40;;;;;;;;;3.00;1.50;;;;;11.49;85.95;100203.19;5057354;28;45242;-77
2021/12/29 00:11:06;;;;;;;;;3.75;1.25;;;;;11.47;85.95;100205.00;5057552;28;45479;-77
2021/12/29 00:13:32;;;;;;;;;2.00;2.00;;;;;11.51;86.17;100217.16;5057178;28;47051;-78
2021/12/29 00:15:59;;;;;;;;;5.75;2.00;;;;;11.38;85.75;100203.56;5057160;28;45395;-77
2021/12/29 00:18:32;;;;;;;;;1.50;1.00;;;;;11.48;85.72;100222.56;5057300;28;45356;-77
2021/12/29 00:20:59;;;;;;;;;1.25;1.25;;;;;11.47;86.37;100234.00;5057447;28;45464;-78
2021/12/29 00:23:26;;;;;;;;;4.00;1.00;;;;;11.47;85.89;100239.28;5056930;28;46491;-77
2021/12/29 00:25:52;;;;;;;;;1.50;1.50;;;;;11.44;85.72;100224.44;5057033;28;45372;-77
2021/12/29 00:28:18;;;;;;;;;1.00;1.00;;;;;11.45;85.52;100234.06;5057302;28;45468;-78
2021/12/29 00:30:44;;;;;;;;;4.00;1.75;;;;;11.42;85.65;100228.03;5059673;28;45344;-78
2021/12/29 00:33:09;;;;;;;;;2.25;2.00;;;;;11.45;86.13;100241.97;5060692;28;45462;-78
2021/12/29 00:35:38;;;;;;;;;2.75;1.00;;;;;11.46;85.76;100237.56;5060417;28;45496;-77
2021/12/29 00:38:05;;;;;;;;;2.25;1.50;;;;;11.46;86.15;100250.75;5060401;28;45297;-78
2021/12/29 00:40:30;;;;;;;;;2.00;1.25;;;;;11.37;85.71;100241.38;5060959;28;45324;-78
2021/12/29 00:42:56;;;;;;;;;2.50;0.50;;;;;11.43;86.19;100251.72;5060355;28;47012;-78
2021/12/29 00:45:22;;;;;;;;;2.00;1.00;;;;;11.36;86.04;100252.84;5060330;28;45328;-77
2021/12/29 00:47:49;;;;;;;;;1.00;1.00;;;;;11.33;86.00;100250.31;5060482;28;45377;-78
2021/12/29 00:50:15;;;;;;;;;4.00;1.50;;;;;11.45;85.37;100276.25;5060226;28;45433;-76
2021/12/29 00:52:45;;;;;;;;;1.25;1.00;;;;;11.45;85.31;100280.66;5060215;28;46989;-77
2021/12/29 00:55:16;;;;;;;;;4.50;2.00;;;;;11.39;85.94;100267.69;5060152;28;45278;-78
2021/12/29 00:57:42;;;;;;;;;3.00;2.00;;;;;11.45;86.09;100286.78;5060221;28;45217;-79
2021/12/29 01:00:12;;;;;;;;;1.00;1.00;;;;;11.34;85.89;100273.09;5060596;28;45342;-79
2021/12/29 01:02:38;;;;;;;;;1.00;1.00;;;;;11.21;85.36;100248.06;5059882;28;46262;-77
2021/12/29 01:05:05;;;;;;;;;1.00;1.00;;;;;11.45;85.86;100291.22;5060086;28;45249;-79
2021/12/29 01:07:31;;;;;;;;;4.00;2.50;;;;;11.39;85.64;100278.25;5060159;28;45230;-76
2021/12/29 01:09:56;;;;;;;;;2.75;1.00;;;;;11.43;85.22;100282.47;5060385;28;45432;-77
2021/12/29 01:12:23;;;;;;;;;1.50;0.75;;;;;11.42;85.29;100281.63;5059986;28;46059;-77
2021/12/29 01:14:54;;;;;;;;;3.00;1.00;;;;;11.44;85.80;100277.19;5059802;28;45387;-78
2021/12/29 01:17:20;;;;;;;;;3.00;1.25;;;;;11.35;85.40;100268.72;5059956;28;45180;-78
2021/12/29 01:19:48;;;;;;;;;5.50;2.00;;;;;11.43;85.67;100293.00;5060113;28;45479;-78
2021/12/29 01:22:14;;;;;;;;;3.00;1.25;;;;;11.33;85.45;100274.03;5059660;28;46753;-78
2021/12/29 01:24:40;;;;;;;;;2.75;1.00;;;;;11.44;85.36;100290.34;5059928;28;45229;-78
2021/12/29 01:27:05;;;;;;;;;3.50;1.75;;;;;11.36;85.42;100286.25;5059863;28;45455;-77
2021/12/29 01:29:31;;;;;;;;;1.75;1.75;;;;;11.38;84.66;100298.44;5059957;28;45373;-77
2021/12/29 01:31:58;;;;;;;;;2.25;1.00;;;;;11.44;84.68;100310.56;5059717;28;46353;-77
2021/12/29 01:34:24;;;;;;;;;1.60;1.00;;;;;11.40;84.54;100311.56;5059577;28;45540;-77
2021/12/29 01:36:50;;;;;;;;;3.00;1.00;;;;;11.17;85.04;100280.69;5059599;28;45435;-77
2021/12/29 01:39:18;;;;;;;;;2.25;2.00;;;;;11.33;85.28;100309.16;5059864;28;45548;-77
2021/12/29 01:41:45;;;;;;;;;3.75;2.75;;;;;11.38;84.63;100322.16;5058293;28;45519;-76
2021/12/29 01:44:13;;;;;;;;;2.00;1.00;;;;;11.31;85.06;100318.00;5059658;28;45320;-77
2021/12/29 01:46:41;;;;;;;;;1.00;1.00;;;;;11.23;84.73;100323.53;5059706;28;45419;-77
2021/12/29 01:49:07;;;;;;;;;2.00;2.00;;;;;11.35;84.21;100340.72;5059481;28;45285;-77
2021/12/29 01:51:35;;;;;;;;;2.00;2.00;;;;;11.28;84.66;100341.84;5059224;28;47538;-78
2021/12/29 01:54:04;;;;;;;;;3.00;1.50;;;;;11.34;85.12;100352.16;5059253;28;45328;-78
2021/12/29 01:56:32;;;;;;;;;3.00;1.50;;;;;11.31;84.92;100355.78;5059282;28;45269;-77
2021/12/29 01:58:58;;;;;;;;;1.00;1.00;;;;;11.30;85.16;100361.97;5059581;28;45464;-77
2021/12/29 02:01:24;;;;;;;;;1.50;1.50;;;;;11.37;84.37;100369.66;5058988;28;45430;-77
2021/12/29 02:03:52;;;;;;;;;4.00;1.00;;;;;11.31;85.06;100358.44;5059134;28;45336;-78
2021/12/29 02:06:18;;;;;;;;;2.00;2.00;;;;;11.28;84.90;100352.38;5059184;28;45271;-76
2021/12/29 02:08:43;;;;;;;;;3.00;3.00;;;;;11.37;84.64;100369.66;5059321;28;45474;-78
2021/12/29 02:11:09;;;;;;;;;2.25;2.25;;;;;11.29;84.67;100362.03;5059133;28;46527;-77
2021/12/29 02:13:34;;;;;;;;;2.00;2.00;;;;;11.35;84.34;100360.97;5058966;28;45212;-77
2021/12/29 02:16:00;;;;;;;;;1.00;1.00;;;;;11.31;84.44;100357.56;5059017;28;45259;-78
2021/12/29 02:18:26;;;;;;;;;2.00;2.00;;;;;11.34;84.11;100357.44;5059322;28;45453;-78
2021/12/29 02:20:55;;;;;;;;;2.25;2.00;;;;;11.35;84.04;100360.97;5058687;28;45408;-78
2021/12/29 02:23:32;;;;;;;;;2.00;1.00;;;;;11.31;84.70;100347.88;5058950;28;45440;-77
2021/12/29 02:25:58;;;;;;;;;7.25;4.00;;;;;11.37;83.58;100346.81;5058933;28;45431;-77
2021/12/29 02:28:28;;;;;;;;;2.50;1.25;;;;;11.35;83.69;100361.81;5058998;28;45317;-77
2021/12/29 02:30:55;;;;;;;;;3.00;2.00;;;;;11.35;83.32;100359.19;5058637;28;45398;-77
2021/12/29 02:33:21;;;;;;;;;2.00;2.00;;;;;11.37;83.84;100364.41;5058636;28;45428;-77
2021/12/29 02:35:47;;;;;;;;;2.00;1.00;;;;;11.25;83.38;100341.94;5058656;28;45379;-76
2021/12/29 02:38:26;;;;;;;;;5.00;2.00;;;;;11.31;83.88;100360.19;5058974;28;45365;-77
2021/12/29 02:40:55;;;;;;;;;1.00;1.00;;;;;11.34;83.37;100378.53;5058469;28;47334;-77
2021/12/29 02:43:23;;;;;;;;;2.00;2.00;;;;;11.33;83.14;100374.19;5058506;28;45406;-77
2021/12/29 02:45:58;;;;;;;;;3.00;1.00;;;;;11.17;82.91;100343.94;5058839;28;45329;-78
2021/12/29 02:48:25;;;;;;;;;2.00;0.75;;;;;11.29;83.76;100356.75;5058676;28;45436;-77
2021/12/29 02:50:55;;;;;;;;;2.00;2.00;;;;;11.08;83.48;100334.56;5058146;28;46260;-77
2021/12/29 02:53:20;;;;;;;;;2.60;1.00;;;;;11.25;83.65;100360.38;5058233;28;45328;-77
2021/12/29 02:55:46;;;;;;;;;1.00;1.00;;;;;11.23;83.19;100360.44;5058650;28;45316;-78
2021/12/29 02:58:11;;;;;;;;;1.00;1.00;;;;;11.17;83.52;100360.63;5058546;28;45312;-77
2021/12/29 03:00:36;;;;;;;;;1.25;1.25;;;;;11.18;83.81;100366.75;5058358;28;45450;-77
2021/12/29 03:03:02;;;;;;;;;1.00;1.00;;;;;11.12;83.43;100368.69;5058231;28;45249;-77
2021/12/29 03:05:27;;;;;;;;;3.00;1.00;;;;;11.03;83.94;100371.59;5058281;28;45357;-77
2021/12/29 03:07:55;;;;;;;;;1.25;1.00;;;;;10.93;84.01;100362.25;5058686;28;45290;-77
2021/12/29 03:10:20;;;;;;;;;3.00;1.75;;;;;11.03;84.02;100370.75;5058073;28;45472;-76
2021/12/29 03:12:45;;;;;;;;;2.00;1.00;;;;;10.95;84.00;100377.09;5058375;28;45231;-76
2021/12/29 03:15:11;;;;;;;;;1.00;1.00;;;;;10.93;83.77;100388.59;5058084;28;45392;-76
2021/12/29 03:17:36;;;;;;;;;1.75;1.00;;;;;10.92;83.99;100390.38;5058230;28;45267;-76
2021/12/29 03:20:02;;;;;;;;;1.00;1.00;;;;;10.80;84.40;100373.16;5057944;28;46135;-77
2021/12/29 03:22:32;;;;;;;;;1.00;1.00;;;;;10.55;84.45;100340.56;5057922;28;45249;-76
2021/12/29 03:24:57;;;;;;;;;6.75;6.00;;;;;10.82;84.10;100398.56;5058215;28;45281;-77
2021/12/29 03:27:23;;;;;;;;;3.00;1.00;;;;;10.77;84.92;100403.97;5058068;28;45563;-78
2021/12/29 03:29:48;;;;;;;;;1.50;0.00;;;;;10.79;84.72;100407.47;5057790;28;45979;-77
2021/12/29 03:32:22;;;;;;;;;2.50;1.25;;;;;10.76;85.29;100416.31;5057828;28;45310;-77
2021/12/29 03:34:48;;;;;;;;;3.25;2.00;;;;;10.69;85.38;100417.38;5057884;28;45451;-76
2021/12/29 03:37:13;;;;;;;;;3.00;3.00;;;;;10.67;85.42;100413.91;5057830;28;45570;-77
2021/12/29 03:39:38;;;;;;;;;4.25;2.00;;;;;10.69;85.63;100405.97;5057585;28;46630;-78
2021/12/29 03:42:06;;;;;;;;;5.00;2.00;;;;;10.67;86.43;100411.28;5057608;28;45443;-77
2021/12/29 03:44:32;;;;;;;;;3.00;1.50;;;;;10.68;86.73;100418.28;5058037;28;45295;-77
2021/12/29 03:46:57;;;;;;;;;5.25;3.00;;;;;10.61;86.65;100411.47;5057897;28;45139;-78
2021/12/29 03:49:23;;;;;;;;;3.00;2.00;;;;;10.59;86.89;100408.03;5057366;28;46555;-76
2021/12/29 03:51:48;;;;;;;;;3.00;1.75;;;;;10.61;86.75;100414.94;5057424;28;45449;-78
2021/12/29 03:54:13;;;;;;;;;5.50;2.25;;;;;10.60;87.90;100413.25;5057675;28;45503;-76
2021/12/29 03:56:39;;;;;;;;;3.50;2.00;;;;;10.60;87.71;100404.47;5057706;28;45480;-77
2021/12/29 03:59:04;;;;;;;;;2.75;1.00;;;;;10.59;87.77;100394.84;5057406;28;46550;-77
2021/12/29 04:01:29;;;;;;;;;2.00;1.00;;;;;10.49;87.99;100375.81;5057389;28;45308;-76
2021/12/29 04:03:55;;;;;;;;;5.00;3.00;;;;;10.58;88.10;100382.59;5057237;28;45320;-76
2021/12/29 04:06:21;;;;;;;;;2.25;2.00;;;;;10.56;88.69;100384.41;5057379;28;45333;-76
2021/12/29 04:08:47;;;;;;;;;3.50;1.75;;;;;10.50;88.69;100376.69;5057377;28;45396;-76
2021/12/29 04:11:14;;;;;;;;;4.75;1.00;;;;;10.43;88.77;100355.81;5057071;28;45350;-76
2021/12/29 04:13:40;;;;;;;;;2.00;2.00;;;;;10.43;89.49;100352.31;5057348;28;45447;-77
2021/12/29 04:16:06;;;;;;;;;0.00;0.00;;;;;10.51;89.74;100370.50;5056258;28;45324;-76
2021/12/29 04:18:32;;;;;;;;;2.50;2.00;;;;;10.45;89.40;100359.25;5057054;28;46195;-77
2021/12/29 04:21:02;;;;;;;;;1.25;1.25;;;;;10.44;89.74;100356.66;5057049;28;45369;-77
2021/12/29 04:23:31;;;;;;;;;1.00;1.00;;;;;10.53;89.27;100371.31;5057142;28;45329;-76
2021/12/29 04:26:00;;;;;;;;;4.00;2.75;;;;;10.42;89.17;100350.59;5057287;28;45309;-76
2021/12/29 04:28:26;;;;;;;;;2.00;1.00;;;;;10.44;89.33;100349.63;5056930;28;46378;-76
2021/12/29 04:31:05;;;;;;;;;3.00;1.00;;;;;10.51;89.78;100370.50;5056870;28;45346;-76
2021/12/29 04:33:31;;;;;;;;;1.00;1.00;;;;;10.40;89.36;100362.94;5057063;28;45388;-76
2021/12/29 04:35:57;;;;;;;;;2.50;2.00;;;;;10.49;90.08;100375.81;5057248;28;45316;-77
2021/12/29 04:38:24;;;;;;;;;5.25;2.00;;;;;10.47;89.79;100382.91;5056822;28;46446;-77
2021/12/29 04:40:52;;;;;;;;;28.67;22.00;;;;;10.44;90.44;100378.59;5056762;28;45250;-75
2021/12/29 04:43:19;;;;;;;;;5.25;3.00;;;;;10.48;90.40;100389.88;5057197;28;45338;-76
2021/12/29 04:45:45;;;;;;;;;3.50;1.25;;;;;10.49;90.66;100385.50;5057106;28;45431;-77
2021/12/29 04:48:13;;;;;;;;;2.75;2.00;;;;;10.49;90.64;100381.09;5056497;28;46812;-76
2021/12/29 04:50:42;;;;;;;;;4.50;3.00;;;;;10.40;90.74;100363.78;5056482;28;45463;-76
2021/12/29 04:53:09;;;;;;;;;3.00;3.00;;;;;10.49;91.09;100381.09;5056905;28;45311;-76
2021/12/29 04:55:36;;;;;;;;;4.00;2.50;;;;;10.45;90.36;100382.94;5057237;28;45356;-76
2021/12/29 04:58:02;;;;;;;;;2.00;2.00;;;;;10.48;90.74;100394.28;5056449;28;45239;-77
2021/12/29 05:00:30;;;;;;;;;5.75;2.00;;;;;10.47;90.68;100389.94;5056728;28;45493;-76
2021/12/29 05:02:58;;;;;;;;;1.00;1.00;;;;;10.25;90.72;100349.28;5056800;28;45390;-78
2021/12/29 05:10:43;;;;;;;;;2.00;2.00;;;;;10.44;90.83;100401.41;5056462;28;45337;-77
2021/12/29 05:13:09;;;;;;;;;6.00;2.00;;;;;10.40;90.50;100397.16;5058301;28;45388;-76
2021/12/29 05:15:35;;;;;;;;;1.75;1.75;;;;;10.44;90.52;100404.91;5056577;28;45444;-77
2021/12/29 05:18:01;;;;;;;;;4.75;2.00;;;;;10.43;90.89;100411.06;5058886;28;46234;-77
2021/12/29 05:20:28;;;;;;;;;4.75;3.50;;;;;10.43;90.94;100405.81;5059737;28;45392;-77
2021/12/29 05:22:54;;;;;;;;;4.00;4.00;;;;;10.42;90.47;100406.72;5060173;28;45466;-77
2021/12/29 05:25:20;;;;;;;;;5.25;3.00;;;;;10.42;91.02;100401.44;5060089;28;45453;-77
2021/12/29 05:27:45;;;;;;;;;7.75;4.00;;;;;10.39;90.45;100398.03;5059559;28;46017;-77
2021/12/29 05:30:11;;;;;;;;;4.00;4.00;;;;;10.29;90.74;100389.50;5059770;28;45384;-77
2021/12/29 05:32:37;;;;;;;;;4.50;3.75;;;;;10.27;92.00;100386.91;5060098;28;45362;-76
2021/12/29 05:35:02;;;;;;;;;5.50;1.75;;;;;10.31;91.82;100398.22;5060184;28;45300;-76
2021/12/29 05:37:29;;;;;;;;;5.25;3.50;;;;;10.32;91.59;100399.09;5059410;28;46658;-76
2021/12/29 05:39:54;;;;;;;;;4.50;3.00;;;;;10.35;91.89;100393.78;5059670;28;45338;-76
2021/12/29 05:42:19;;;;;;;;;4.75;3.00;;;;;10.38;91.89;100399.81;5059617;28;45171;-77
2021/12/29 05:44:45;;;;;;;;;2.00;1.25;;;;;10.41;91.13;100396.22;5060029;28;45520;-77
2021/12/29 05:47:10;;;;;;;;;4.00;2.25;;;;;10.38;91.69;100396.31;5059398;28;45666;-76
2021/12/29 05:49:36;;;;;;;;;2.00;2.00;;;;;10.40;91.87;100390.09;5060327;28;45249;-75
2021/12/29 05:52:01;;;;;;;;;5.50;3.00;;;;;10.46;91.51;100399.59;5059513;28;45247;-76
2021/12/29 05:54:27;;;;;;;;;1.50;1.00;;;;;10.49;91.13;100398.66;5059651;28;45527;-74
2021/12/29 05:56:53;;;;;;;;;8.00;3.00;;;;;10.44;91.32;100397.03;5058984;28;46670;-74
2021/12/29 05:59:18;;;;;;;;;4.00;2.50;;;;;10.49;91.59;100406.56;5059233;28;45978;-77
2021/12/29 06:01:44;;;;;;;;;5.25;3.00;;;;;10.46;91.37;100391.72;5059790;28;45431;-77
2021/12/29 06:04:10;;;;;;;;;4.25;3.00;;;;;10.50;91.18;100398.63;5059736;28;45416;-77
2021/12/29 06:06:35;;;;;;;;;3.00;3.00;;;;;10.56;90.96;100406.34;5059227;28;45405;-77
2021/12/29 06:09:01;;;;;;;;;4.00;2.00;;;;;10.53;91.30;100410.81;5058960;28;45341;-77
2021/12/29 06:11:26;;;;;;;;;3.00;2.00;;;;;10.35;91.14;100370.09;5059135;28;45282;-77
2021/12/29 06:13:51;;;;;;;;;4.00;1.25;;;;;10.54;90.91;100399.38;5059259;28;45781;-77
2021/12/29 06:16:17;;;;;;;;;4.00;2.00;;;;;10.60;91.43;100413.25;5058978;28;45355;-77
2021/12/29 06:18:42;;;;;;;;;4.50;2.00;;;;;10.60;90.72;100407.97;5059327;28;45325;-77
2021/12/29 06:21:07;;;;;;;;;2.00;2.00;;;;;10.56;91.18;100403.69;5059168;28;45325;-76
2021/12/29 06:23:33;;;;;;;;;7.00;2.75;;;;;10.61;90.88;100414.09;5059174;28;45305;-76
2021/12/29 06:25:58;;;;;;;;;2.75;2.25;;;;;10.59;90.78;100408.03;5059025;28;45426;-77
2021/12/29 06:28:24;;;;;;;;;3.00;3.00;;;;;10.59;90.39;100411.50;5058257;28;45404;-77
2021/12/29 06:30:49;;;;;;;;;4.00;1.00;;;;;10.59;90.83;100419.41;5059007;28;45210;-76
2021/12/29 06:33:14;;;;;;;;;4.25;4.00;;;;;10.56;90.67;100411.59;5059068;28;45429;-76
2021/12/29 06:35:40;;;;;;;;;2.75;1.00;;;;;10.57;90.21;100410.69;5058490;28;46605;-77
2021/12/29 06:38:06;;;;;;;;;21.00;16.67;;;;;10.59;90.27;100421.19;5058612;28;45385;-77
2021/12/29 06:40:31;;;;;;;;;6.75;4.25;;;;;10.47;90.76;100413.63;5058759;28;45479;-77
2021/12/29 06:42:56;;;;;;;;;3.75;3.00;;;;;10.59;90.29;100422.03;5059020;28;45258;-76
2021/12/29 06:45:22;;;;;;;;;5.75;3.25;;;;;10.56;90.69;100413.38;5058527;28;46041;-77
2021/12/29 06:47:48;;;;;;;;;4.25;3.00;;;;;10.51;91.79;100407.38;5058383;28;45464;-77
2021/12/29 06:50:13;;;;;;;;;7.00;4.00;;;;;10.49;90.77;100401.28;5058733;28;45619;-78
2021/12/29 06:52:39;;;;;;;;;2.00;2.00;;;;;10.53;91.50;100406.41;5058655;28;45329;-74
2021/12/29 06:55:05;;;;;;;;;6.00;2.25;;;;;10.51;93.74;100413.47;5058341;28;46545;-75
2021/12/29 06:57:31;;;;;;;;;2.25;2.00;;;;;10.51;94.65;100417.91;5058175;28;45365;-75
2021/12/29 06:59:56;;;;;;;;;11.75;9.75;;;;;10.50;93.96;100422.31;5058386;28;45412;-75
2021/12/29 07:02:22;;;;;;;;;6.75;4.50;;;;;10.50;95.52;100424.06;5058685;28;45392;-76
2021/12/29 07:04:47;;;;;;;;;8.00;6.75;;;;;10.47;94.22;100417.13;5058121;28;46382;-77
2021/12/29 07:07:12;;;;;;;;;5.75;4.00;;;;;10.52;96.01;100424.91;5058180;28;45332;-77
2021/12/29 07:09:38;;;;;;;;;8.50;3.50;;;;;10.44;94.30;100409.28;5058282;28;45818;-77
2021/12/29 07:12:04;;;;;;;;;5.00;4.50;;;;;10.49;95.73;100425.84;5058453;28;45400;-77
2021/12/29 07:14:29;;;;;;;;;3.50;3.25;;;;;10.45;94.64;100425.03;5058016;28;46213;-78
2021/12/29 07:16:54;;;;;;;;;10.00;8.50;;;;;10.47;95.59;100435.56;5057802;28;45253;-77
2021/12/29 07:19:20;;;;;;;;;9.50;6.00;;;;;10.37;95.96;100427.03;5058282;28;45162;-77
2021/12/29 07:21:47;;;;;;;;;7.00;6.75;;;;;10.41;96.08;100441.84;5058070;28;45459;-77
2021/12/29 07:24:13;;;;;;;;;8.25;8.25;;;;;10.45;96.23;100440.84;5057501;28;47472;-77
2021/12/29 07:26:39;;;;;;;;;13.75;8.75;;;;;10.40;98.18;100436.63;5057909;28;45267;-77
2021/12/29 07:29:06;;;;;;;;;7.75;5.75;;;;;10.45;98.08;100446.09;5058044;28;45446;-77
2021/12/29 07:31:32;;;;;;;;;10.50;9.75;;;;;10.43;99.38;100440.03;5058207;28;45320;-77
2021/12/29 07:33:59;;;;;;;;;9.00;7.50;;;;;10.33;99.87;100422.72;5057595;28;45682;-77
2021/12/29 07:36:25;;;;;;;;;9.75;8.50;;;;;10.38;99.69;100438.41;5057473;28;45347;-77
2021/12/29 07:38:50;;;;;;;;;7.00;6.00;;;;;10.36;98.23;100424.44;5057156;28;45388;-78
2021/12/29 07:41:16;;;;;;;;;5.00;5.00;;;;;10.30;98.64;100409.66;5057631;28;45399;-78
2021/12/29 07:43:42;;;;;;;;;9.00;6.00;;;;;10.30;100.00;100422.81;5057620;28;47413;-77
2021/12/29 07:46:08;;;;;;;;;9.75;7.00;;;;;10.33;99.39;100421.88;5057546;28;45151;-78
2021/12/29 07:48:34;;;;;;;;;10.75;6.50;;;;;10.33;98.13;100417.47;5057524;28;45294;-78
2021/12/29 07:51:04;;;;;;;;;10.00;6.00;;;;;10.33;99.54;100411.34;5057671;28;45451;-78
2021/12/29 07:53:30;;;;;;;;;9.25;6.75;;;;;10.33;98.95;100412.19;5057319;28;46502;-78
2021/12/29 07:55:56;;;;;;;;;8.75;5.25;;;;;10.28;100.00;100414.06;5057477;28;45314;-78
2021/12/29 07:58:22;;;;;;;;;14.75;6.50;;;;;10.36;100.00;100430.56;5057456;28;45364;-78
2021/12/29 08:00:48;;;;;;;;;8.75;7.00;;;;;10.38;99.46;100430.53;5057623;28;45314;-77
2021/12/29 08:03:15;;;;;;;;;13.00;7.25;;;;;10.29;100.00;100400.03;5057319;28;45338;-78
2021/12/29 08:05:42;;;;;;;;;14.25;9.00;;;;;10.39;100.00;100417.31;5057365;28;45389;-77
2021/12/29 08:08:07;;;;;;;;;10.50;9.00;;;;;10.34;100.00;100419.22;5057300;28;45460;-78
2021/12/29 08:10:34;;;;;;;;;16.25;14.75;;;;;10.32;99.17;100412.25;5057602;28;45410;-78
2021/12/29 08:13:01;;;;;;;;;18.50;13.25;;;;;10.44;100.00;100427.72;5057163;28;45290;-77
2021/12/29 08:15:27;;;;;;;;;16.50;9.75;;;;;10.43;99.77;100437.41;5057192;28;45329;-78
2021/12/29 08:17:52;;;;;;;;;13.75;8.00;;;;;10.42;100.00;100426.91;5057147;28;45314;-78
2021/12/29 08:20:18;;;;;;;;;12.33;8.00;;;;;10.43;100.00;100432.13;5057498;28;45486;-78
2021/12/29 08:22:43;;;;;;;;;10.50;9.00;;;;;10.18;100.00;100391.56;5057063;28;45511;-78
2021/12/29 08:25:09;;;;;;;;;13.75;11.00;;;;;10.42;100.00;100427.75;5057234;28;45495;-77
2021/12/29 08:27:35;;;;;;;;;6.50;6.00;;;;;10.42;100.00;100419.00;5057284;28;45342;-77
2021/12/29 08:30:05;;;;;;;;;7.00;6.25;;;;;10.40;100.00;100405.91;5057286;28;45312;-77
2021/12/29 08:32:30;;;;;;;;;9.75;8.75;;;;;10.24;100.00;100375.63;5056831;28;45417;-77
2021/12/29 08:34:56;;;;;;;;;11.25;8.00;;;;;10.45;100.00;100411.88;5057015;28;45218;-77
2021/12/29 08:37:21;;;;;;;;;16.25;12.25;;;;;10.51;100.00;100418.75;5056735;28;45639;-78
2021/12/29 08:39:46;;;;;;;;;15.33;10.67;;;;;10.50;100.00;100411.78;5057151;28;45341;-77
2021/12/29 08:42:12;;;;;;;;;12.25;10.50;;;;;10.53;100.00;100402.91;5056923;28;45488;-77
2021/12/29 08:44:38;;;;;;;;;14.33;12.33;;;;;10.50;100.00;100390.72;5056669;28;45479;-77
2021/12/29 08:47:04;;;;;;;;;10.75;8.25;;;;;10.55;99.82;100380.91;5057122;28;45216;-77
2021/12/29 08:49:29;;;;;;;;;8.75;8.00;;;;;10.62;100.00;100392.13;5056841;28;45357;-77
2021/12/29 08:51:56;;;;;;;;;22.67;19.00;;;;;10.60;100.00;100386.91;5059012;28;45688;-77
2021/12/29 08:54:22;;;;;;;;;11.00;8.75;;;;;10.61;100.00;100395.66;5060167;28;45450;-77
2021/12/29 08:56:47;;;;;;;;;13.67;11.33;;;;;10.62;100.00;100392.13;5060301;28;45478;-78
2021/12/29 08:59:13;;;;;;;;;12.50;8.00;;;;;10.58;100.00;100377.31;5060637;28;45352;-78
2021/12/29 09:01:40;;;;;;;;;14.50;9.50;;;;;10.65;100.00;100386.78;5059982;28;45797;-78
2021/12/29 09:04:06;;;;;;;;;9.75;7.25;;;;;10.66;100.00;100380.63;5060060;28;45246;-78
2021/12/29 09:06:33;;;;;;;;;11.25;7.50;;;;;10.67;100.00;100392.00;5060203;28;45459;-78
2021/12/29 09:08:58;;;;;;;;;6.00;5.00;;;;;10.60;100.00;100386.91;5060318;28;45266;-77
2021/12/29 09:11:23;;;;;;;;;10.50;7.50;;;;;10.72;99.59;100395.38;5059877;28;46238;-76
2021/12/29 09:13:49;;;;;;;;;23.67;21.00;;;;;10.55;99.39;100351.09;5059842;28;45336;-77
2021/12/29 09:16:14;;;;;;;;;9.50;6.25;;;;;10.69;100.00;100395.44;5060050;28;45370;-78
2021/12/29 09:18:40;;;;;;;;;8.25;7.25;;;;;10.71;100.00;100383.97;5060286;28;45379;-78
2021/12/29 09:21:11;;;;;;;;;8.25;6.75;;;;;10.63;100.00;100372.81;5059824;28;45955;-78
2021/12/29 09:23:38;;;;;;;;;10.75;7.50;;;;;10.67;100.00;100378.84;5060012;28;45219;-77
2021/12/29 09:26:04;;;;;;;;;10.00;6.00;;;;;10.76;99.48;100386.44;5060041;28;45379;-76
2021/12/29 09:28:31;;;;;;;;;14.75;7.50;;;;;10.73;100.00;100392.69;5060157;28;45352;-77
2021/12/29 09:30:56;;;;;;;;;10.50;6.00;;;;;10.72;99.07;100383.06;5059678;28;45680;-78
2021/12/29 09:33:22;;;;;;;;;7.33;6.67;;;;;10.70;99.35;100382.22;5059583;28;45352;-77
2021/12/29 09:35:51;;;;;;;;;10.00;7.50;;;;;10.76;100.00;100383.81;5059772;28;45346;-77
2021/12/29 09:38:19;;;;;;;;;7.75;5.25;;;;;10.75;99.00;100387.38;5059692;28;45650;-77
2021/12/29 09:40:46;;;;;;;;;9.00;5.00;;;;;10.78;98.98;100401.31;5059319;28;46529;-78
2021/12/29 09:43:11;;;;;;;;;7.50;4.50;;;;;10.67;99.07;100384.09;5059588;28;45443;-78
2021/12/29 09:45:39;;;;;;;;;9.00;6.50;;;;;10.66;99.53;100380.63;5059489;28;45313;-77
2021/12/29 09:48:04;;;;;;;;;9.75;6.75;;;;;10.71;99.48;100372.56;5059507;28;45249;-78
2021/12/29 09:50:31;;;;;;;;;4.00;3.00;;;;;10.74;98.95;100373.34;5059192;28;46307;-78
2021/12/29 09:52:59;;;;;;;;;7.50;4.75;;;;;10.81;99.61;100374.03;5059301;28;45448;-77
2021/12/29 09:55:25;;;;;;;;;17.00;15.00;;;;;10.80;99.27;100354.75;5059346;28;45316;-77
2021/12/29 09:57:54;;;;;;;;;5.25;3.25;;;;;10.89;98.64;100386.97;5059647;28;45289;-77
2021/12/29 10:00:25;;;;;;;;;5.50;5.50;;;;;10.89;98.82;100390.47;5059219;28;46209;-78
2021/12/29 10:02:53;;;;;;;;;7.25;5.00;;;;;10.83;98.32;100366.94;5058101;28;45470;-77
2021/12/29 10:05:18;;;;;;;;;7.00;7.00;;;;;10.79;98.74;100344.25;5059384;28;45258;-78
2021/12/29 10:07:44;;;;;;;;;7.25;4.75;;;;;10.88;98.78;100351.00;5059193;28;45506;-78
2021/12/29 10:10:20;;;;;;;;;4.00;3.00;;;;;10.86;97.43;100337.00;5059119;28;46733;-78
2021/12/29 10:12:47;;;;;;;;;5.25;4.00;;;;;10.87;97.31;100338.75;5059199;28;45443;-78
2021/12/29 10:15:13;;;;;;;;;3.00;3.00;;;;;10.87;97.88;100328.22;5058992;28;45385;-78
2021/12/29 10:17:39;;;;;;;;;5.25;2.25;;;;;10.77;97.69;100323.19;5059243;28;45489;-76
2021/12/29 10:20:14;;;;;;;;;4.25;4.25;;;;;10.83;98.01;100323.94;5058840;28;45440;-78
2021/12/29 10:22:41;;;;;;;;;7.25;5.50;;;;;10.90;97.50;100328.09;5058849;28;45558;-77
2021/12/29 10:25:14;;;;;;;;;9.00;5.50;;;;;10.87;97.22;100334.31;5059030;28;45317;-78
2021/12/29 10:27:41;;;;;;;;;6.00;3.00;;;;;10.88;97.25;100343.97;5058859;28;45254;-77
2021/12/29 10:30:18;;;;;;;;;3.00;3.00;;;;;10.87;97.05;100341.38;5058711;28;45584;-76
2021/12/29 10:32:45;;;;;;;;;4.25;3.00;;;;;10.84;96.75;100336.22;5058739;28;45442;-77
2021/12/29 10:35:23;;;;;;;;;7.00;5.25;;;;;10.78;96.53;100324.09;5059066;28;45232;-76
2021/12/29 10:37:50;;;;;;;;;4.50;3.50;;;;;10.79;97.07;100334.56;5058760;28;45225;-77
2021/12/29 10:40:30;;;;;;;;;4.00;2.00;;;;;10.77;97.23;100333.72;5058489;28;46254;-77
2021/12/29 10:43:00;;;;;;;;;3.75;3.00;;;;;10.71;97.00;100309.38;5058456;28;45833;-78
2021/12/29 10:45:38;;;;;;;;;6.50;5.00;;;;;10.73;97.46;100323.34;5058768;28;45463;-76
2021/12/29 10:48:28;;;;;;;;;3.50;3.25;;;;;10.74;97.77;100331.19;5058405;28;45345;-77
2021/12/29 10:51:08;;;;;;;;;5.50;5.50;;;;;10.73;98.67;100334.75;5058256;28;46154;-77
2021/12/29 10:53:36;;;;;;;;;6.25;5.00;;;;;10.72;98.13;100319.88;5058207;28;45460;-77
2021/12/29 10:56:03;;;;;;;;;4.50;4.00;;;;;10.74;98.27;100322.44;5058749;28;45228;-77
2021/12/29 10:58:32;;;;;;;;;8.00;6.00;;;;;10.70;99.29;100315.53;5051645;28;45535;-76
2021/12/29 11:01:03;;;;;;;;;9.50;5.50;;;;;10.78;98.24;100308.28;5040093;28;45583;-74
2021/12/29 11:03:30;;;;;;;;;9.25;4.00;;;;;10.83;98.51;100302.88;5045405;28;45475;-74
2021/12/29 11:05:59;;;;;;;;;5.75;4.75;;;;;10.86;98.21;100306.25;5037799;28;45536;-70
2021/12/29 11:08:28;;;;;;;;;7.00;5.25;;;;;10.54;97.94;100250.22;5038065;28;45443;-72
2021/12/29 11:11:00;;;;;;;;;7.00;5.25;;;;;10.87;97.77;100310.63;5037794;28;46694;-73
2021/12/29 11:13:27;;;;;;;;;3.75;3.75;;;;;10.90;97.55;100309.66;5037812;28;45396;-73
2021/12/29 11:15:55;;;;;;;;;14.00;7.00;;;;;10.78;98.23;100295.13;5037601;28;45355;-73
2021/12/29 11:18:20;;;;;;;;;8.50;5.50;;;;;10.86;98.34;100308.03;5038048;28;45283;-73
2021/12/29 11:20:52;;;;;;;;;5.25;3.00;;;;;10.85;97.87;100303.66;5037398;28;46266;-72
2021/12/29 11:23:20;;;;;;;;;6.75;5.50;;;;;10.82;98.51;100302.03;5039669;28;45575;-71
2021/12/29 11:25:46;;;;;;;;;12.25;8.00;;;;;10.85;98.55;100295.75;5058127;28;45331;-71